createdAt,value
2022-10-13T00:02:20.081Z,96.31
2022-10-13T00:05:24.401Z,96.75
2022-10-13T00:08:27.061Z,96.50
2022-10-13T00:11:31.250Z,97.16
2022-10-13T00:14:33.877Z,97.06
2022-10-13T00:17:37.281Z,98.28
2022-10-13T00:20:44.756Z,100.00
2022-10-13T00:23:47.768Z,100.00
2022-10-13T00:26:52.246Z,100.00
2022-10-13T00:29:54.872Z,100.00
2022-10-13T00:32:57.482Z,100.00
2022-10-13T00:36:01.501Z,100.00
2022-10-13T00:39:04.804Z,100.00
2022-10-13T00:42:11.223Z,100.00
2022-10-13T00:45:23.447Z,100.00
2022-10-13T00:48:29.116Z,100.00
2022-10-13T00:51:35.698Z,100.00
2022-10-13T00:54:38.720Z,99.22
2022-10-13T00:57:44.984Z,99.31
2022-10-13T01:00:50.608Z,97.72
2022-10-13T01:03:53.715Z,97.39
2022-10-13T01:06:58.005Z,97.19
2022-10-13T01:10:02.628Z,97.50
2022-10-13T01:13:13.113Z,98.12
2022-10-13T01:16:24.030Z,98.45
2022-10-13T01:20:05.623Z,98.29
2022-10-13T01:23:23.282Z,98.33
2022-10-13T01:26:55.267Z,97.62
2022-10-13T01:30:08.078Z,97.37
2022-10-13T01:33:23.265Z,97.90
2022-10-13T01:36:34.332Z,97.73
2022-10-13T01:39:44.025Z,98.03
2022-10-13T01:42:54.327Z,98.50
2022-10-13T01:46:03.336Z,98.73
2022-10-13T01:49:10.338Z,99.78
2022-10-13T01:52:17.388Z,99.28
2022-10-13T01:55:20.213Z,99.89
2022-10-13T01:58:23.469Z,99.69
2022-10-13T02:01:40.509Z,99.90
2022-10-13T02:04:53.972Z,99.43
2022-10-13T02:08:01.730Z,99.55
2022-10-13T02:11:14.308Z,99.04
2022-10-13T02:14:22.337Z,98.72
2022-10-13T02:17:28.045Z,98.47
2022-10-13T02:20:32.295Z,98.43
2022-10-13T02:23:35.006Z,98.52
2022-10-13T02:26:39.096Z,98.57
2022-10-13T02:29:51.250Z,98.84
2022-10-13T02:32:55.485Z,98.79
2022-10-13T02:35:58.069Z,98.76
2022-10-13T02:39:00.777Z,99.54
2022-10-13T02:42:03.420Z,99.40
2022-10-13T02:45:07.415Z,99.76
2022-10-13T02:48:11.502Z,100.00
2022-10-13T02:51:14.125Z,99.94
2022-10-13T02:54:16.887Z,99.90
2022-10-13T02:57:20.084Z,99.64
2022-10-13T03:00:23.317Z,99.54
2022-10-13T03:03:27.437Z,99.71
2022-10-13T03:06:30.041Z,100.00
2022-10-13T03:09:32.960Z,100.00
2022-10-13T03:12:35.595Z,100.00
2022-10-13T03:15:38.238Z,100.00
2022-10-13T03:18:42.267Z,100.00
2022-10-13T03:21:45.363Z,100.00
2022-10-13T03:24:47.999Z,100.00
2022-10-13T03:27:50.618Z,100.00
2022-10-13T03:31:01.615Z,100.00
2022-10-13T03:34:05.593Z,100.00
2022-10-13T03:37:08.213Z,100.00
2022-10-13T03:40:12.260Z,100.00
2022-10-13T03:43:14.866Z,100.00
2022-10-13T03:46:19.377Z,100.00
2022-10-13T03:49:23.367Z,100.00
2022-10-13T03:52:26.080Z,100.00
2022-10-13T03:55:28.785Z,100.00
2022-10-13T03:58:31.791Z,100.00
2022-10-13T04:01:34.791Z,100.00
2022-10-13T04:04:39.596Z,100.00
2022-10-13T04:07:42.517Z,100.00
2022-10-13T04:10:45.474Z,100.00
2022-10-13T04:13:48.264Z,100.00
2022-10-13T04:16:50.947Z,100.00
2022-10-13T04:19:55.285Z,100.00
2022-10-13T04:22:57.941Z,100.00
2022-10-13T04:26:00.970Z,100.00
2022-10-13T04:29:05.218Z,100.00
2022-10-13T04:32:07.846Z,100.00
2022-10-13T04:35:11.889Z,100.00
2022-10-13T04:38:14.504Z,100.00
2022-10-13T04:41:18.693Z,100.00
2022-10-13T04:44:21.597Z,100.00
2022-10-13T04:47:24.224Z,100.00
2022-10-13T04:50:28.416Z,100.00
2022-10-13T04:53:31.763Z,100.00
2022-10-13T04:56:34.670Z,100.00
2022-10-13T04:59:37.593Z,100.00
2022-10-13T05:02:40.259Z,100.00
2022-10-13T05:05:44.330Z,100.00
2022-10-13T05:08:47.002Z,100.00
2022-10-13T05:11:49.994Z,100.00
2022-10-13T05:14:52.673Z,100.00
2022-10-13T05:17:55.321Z,100.00
2022-10-13T05:21:07.766Z,100.00
2022-10-13T05:24:13.491Z,100.00
2022-10-13T05:27:16.102Z,100.00
2022-10-13T05:30:18.921Z,100.00
2022-10-13T05:33:21.588Z,100.00
2022-10-13T05:36:28.034Z,100.00
2022-10-13T05:39:30.668Z,100.00
2022-10-13T05:42:33.310Z,100.00
2022-10-13T05:45:36.237Z,100.00
2022-10-13T05:48:39.585Z,100.00
2022-10-13T05:51:47.864Z,100.00
2022-10-13T05:54:55.162Z,100.00
2022-10-13T05:57:57.846Z,100.00
2022-10-13T06:01:00.629Z,100.00
2022-10-13T06:04:06.857Z,100.00
2022-10-13T06:07:10.949Z,100.00
2022-10-13T06:10:13.754Z,100.00
2022-10-13T06:13:16.361Z,100.00
2022-10-13T06:16:19.079Z,100.00
2022-10-13T06:19:21.715Z,100.00
2022-10-13T06:22:26.043Z,100.00
2022-10-13T06:25:29.335Z,100.00
2022-10-13T06:28:31.970Z,100.00
2022-10-13T06:31:34.658Z,100.00
2022-10-13T06:34:37.298Z,100.00
2022-10-13T06:37:41.563Z,100.00
2022-10-13T06:40:44.267Z,100.00
2022-10-13T06:43:46.900Z,100.00
2022-10-13T06:46:49.813Z,100.00
2022-10-13T06:49:52.441Z,100.00
2022-10-13T06:52:57.499Z,100.00
2022-10-13T06:56:01.249Z,100.00
2022-10-13T06:59:03.930Z,100.00
2022-10-13T07:02:06.557Z,100.00
2022-10-13T07:05:09.807Z,100.00
2022-10-13T07:08:14.204Z,100.00
2022-10-13T07:11:18.598Z,100.00
2022-10-13T07:14:21.511Z,100.00
2022-10-13T07:17:24.093Z,100.00
2022-10-13T07:20:27.366Z,100.00
2022-10-13T07:23:31.761Z,100.00
2022-10-13T07:26:34.637Z,100.00
2022-10-13T07:29:37.338Z,100.00
2022-10-13T07:32:42.345Z,100.00
2022-10-13T07:35:45.097Z,100.00
2022-10-13T07:38:49.177Z,100.00
2022-10-13T07:41:51.773Z,100.00
2022-10-13T07:44:54.466Z,100.00
2022-10-13T07:47:57.179Z,100.00
2022-10-13T07:51:00.180Z,100.00
2022-10-13T07:54:04.351Z,100.00
2022-10-13T07:57:07.024Z,100.00
2022-10-13T08:00:11.127Z,100.00
2022-10-13T08:03:13.770Z,99.88
2022-10-13T08:06:16.818Z,98.71
2022-10-13T08:09:20.784Z,97.95
2022-10-13T08:12:23.371Z,96.81
2022-10-13T08:15:26.022Z,96.38
2022-10-13T08:18:28.911Z,95.76
2022-10-13T08:24:55.811Z,93.84
2022-10-13T08:28:00.623Z,94.08
2022-10-13T08:31:03.545Z,94.93
2022-10-13T08:34:06.329Z,94.97
2022-10-13T08:37:14.233Z,94.06
2022-10-13T08:40:21.727Z,93.88
2022-10-13T08:43:25.572Z,93.39
2022-10-13T08:46:34.440Z,92.42
2022-10-13T08:49:37.415Z,88.83
2022-10-13T08:52:52.915Z,87.50
2022-10-13T08:56:00.305Z,87.12
2022-10-13T08:59:05.169Z,87.51
2022-10-13T09:02:14.654Z,87.99
2022-10-13T09:05:26.514Z,87.94
2022-10-13T09:08:41.549Z,87.91
2022-10-13T09:11:48.176Z,88.22
2022-10-13T09:14:58.646Z,87.08
2022-10-13T09:18:10.852Z,85.90
2022-10-13T09:21:21.673Z,86.74
2022-10-13T09:24:26.395Z,86.41
2022-10-13T09:27:42.884Z,85.50
2022-10-13T09:30:47.642Z,84.33
2022-10-13T09:33:59.305Z,84.27
2022-10-13T09:37:03.863Z,83.89
2022-10-13T09:40:31.869Z,83.10
2022-10-13T09:43:44.876Z,84.22
2022-10-13T09:46:54.171Z,84.71
2022-10-13T09:50:18.719Z,84.71
2022-10-13T09:53:29.583Z,82.61
2022-10-13T09:56:43.263Z,81.70
2022-10-13T09:59:55.811Z,81.99
2022-10-13T10:03:09.114Z,82.73
2022-10-13T10:06:24.003Z,82.69
2022-10-13T10:09:40.745Z,82.55
2022-10-13T10:12:50.716Z,81.75
2022-10-13T10:16:06.380Z,81.00
2022-10-13T10:19:25.715Z,81.76
2022-10-13T10:22:40.658Z,82.61
2022-10-13T10:25:54.010Z,81.99
2022-10-13T10:29:25.897Z,81.87
2022-10-13T10:32:44.469Z,82.51
2022-10-13T10:35:56.439Z,82.36
2022-10-13T10:39:11.613Z,81.34
2022-10-13T10:42:37.228Z,81.05
2022-10-13T10:45:46.795Z,81.79
2022-10-13T10:48:58.762Z,82.75
2022-10-13T10:52:11.497Z,81.71
2022-10-13T10:55:25.184Z,81.39
2022-10-13T10:58:42.261Z,81.37
2022-10-13T11:02:03.077Z,82.00
2022-10-13T11:05:15.232Z,81.42
2022-10-13T11:08:35.744Z,80.32
2022-10-13T11:11:50.131Z,80.49
2022-10-13T11:15:14.213Z,81.07
2022-10-13T11:19:14.342Z,80.67
2022-10-13T11:22:22.934Z,78.18
2022-10-13T11:25:39.300Z,78.38
2022-10-13T11:28:49.267Z,77.74
2022-10-13T11:31:54.698Z,77.99
2022-10-13T11:34:59.753Z,77.77
2022-10-13T11:38:29.142Z,77.89
2022-10-13T11:41:41.883Z,79.20
2022-10-13T11:44:54.813Z,80.06
2022-10-13T11:48:17.075Z,80.38
2022-10-13T11:51:31.113Z,79.89
2022-10-13T11:54:40.413Z,80.04
2022-10-13T11:57:43.041Z,80.43
2022-10-13T12:00:57.914Z,80.28
2022-10-13T12:04:00.542Z,79.36
2022-10-13T12:07:05.939Z,79.14
2022-10-13T12:10:21.564Z,79.01
2022-10-13T12:13:26.549Z,77.50
2022-10-13T12:16:29.917Z,77.96
2022-10-13T12:19:33.362Z,78.57
2022-10-13T12:22:40.122Z,78.85
2022-10-13T12:25:48.909Z,79.02
2022-10-13T12:28:56.208Z,78.84
2022-10-13T12:31:59.518Z,78.22
2022-10-13T12:35:16.812Z,76.35
2022-10-13T12:38:21.489Z,75.29
2022-10-13T12:41:28.519Z,74.04
2022-10-13T12:44:33.024Z,74.66
2022-10-13T12:47:48.104Z,75.64
2022-10-13T12:50:51.167Z,76.22
2022-10-13T12:53:53.901Z,75.25
2022-10-13T12:57:01.034Z,73.87
2022-10-13T13:00:06.348Z,74.05
2022-10-13T13:03:26.039Z,74.16
2022-10-13T13:06:35.373Z,72.39
2022-10-13T13:09:39.083Z,72.60
2022-10-13T13:12:44.871Z,73.40
2022-10-13T13:15:47.508Z,74.05
2022-10-13T13:18:51.227Z,75.56
2022-10-13T13:21:53.891Z,75.38
2022-10-13T13:24:56.558Z,75.49
2022-10-13T13:28:00.538Z,76.60
2022-10-13T13:31:03.176Z,77.57
2022-10-13T13:34:05.822Z,78.39
2022-10-13T13:37:14.097Z,78.74
2022-10-13T13:40:18.733Z,79.10
2022-10-13T13:43:22.757Z,79.74
2022-10-13T13:46:27.537Z,80.42
2022-10-13T13:49:30.150Z,81.17
2022-10-13T13:52:32.799Z,82.43
2022-10-13T13:55:36.313Z,82.21
2022-10-13T13:58:40.361Z,83.08
2022-10-13T14:01:43.068Z,83.23
2022-10-13T14:04:46.425Z,83.59
2022-10-13T14:07:49.242Z,84.10
2022-10-13T14:10:51.853Z,85.50
2022-10-13T14:13:58.010Z,86.46
2022-10-13T14:17:01.305Z,86.02
2022-10-13T14:20:04.092Z,86.95
2022-10-13T14:23:06.707Z,87.13
2022-10-13T14:26:09.918Z,86.98
2022-10-13T14:29:14.201Z,86.54
2022-10-13T14:32:17.095Z,87.12
2022-10-13T14:35:19.708Z,88.07
2022-10-13T14:38:22.410Z,89.25
2022-10-13T14:41:26.104Z,90.34
2022-10-13T14:44:30.066Z,92.40
2022-10-13T14:47:32.712Z,93.90
2022-10-13T14:50:35.339Z,94.08
2022-10-13T14:53:39.414Z,94.27
2022-10-13T14:56:42.053Z,95.36
2022-10-13T14:59:47.428Z,95.91
2022-10-13T15:02:50.029Z,96.60
2022-10-13T15:05:52.683Z,96.86
2022-10-13T15:08:56.037Z,97.43
2022-10-13T15:11:58.749Z,97.49
2022-10-13T15:15:02.810Z,98.20
2022-10-13T15:18:05.574Z,98.52
2022-10-13T15:21:08.300Z,98.64
2022-10-13T15:24:12.081Z,99.05
2022-10-13T15:27:14.767Z,99.41
2022-10-13T15:30:18.989Z,100.00
2022-10-13T15:33:21.763Z,100.00
2022-10-13T15:36:25.594Z,100.00
2022-10-13T15:39:30.321Z,100.00
2022-10-13T15:42:35.576Z,100.00
2022-10-13T15:45:41.976Z,100.00
2022-10-13T15:48:46.959Z,100.00
2022-10-13T15:51:52.109Z,100.00
2022-10-13T15:54:57.325Z,100.00
2022-10-13T15:58:02.059Z,100.00
2022-10-13T16:01:11.198Z,100.00
2022-10-13T16:04:16.358Z,100.00
2022-10-13T16:07:22.975Z,100.00
2022-10-13T16:10:28.083Z,100.00
2022-10-13T16:13:33.010Z,100.00
2022-10-13T16:16:40.112Z,100.00
2022-10-13T16:19:46.128Z,100.00
2022-10-13T16:22:51.141Z,100.00
2022-10-13T16:25:56.109Z,100.00
2022-10-13T16:29:00.836Z,100.00
2022-10-13T16:32:07.303Z,100.00
2022-10-13T16:35:12.421Z,100.00
2022-10-13T16:38:17.193Z,100.00
2022-10-13T16:41:21.834Z,100.00
2022-10-13T16:44:27.265Z,100.00
2022-10-13T16:47:33.862Z,100.00
2022-10-13T16:50:40.589Z,100.00
2022-10-13T16:53:48.808Z,100.00
2022-10-13T16:56:53.574Z,100.00
2022-10-13T16:59:58.503Z,100.00
2022-10-13T17:03:04.907Z,100.00
2022-10-13T17:06:09.767Z,100.00
2022-10-13T17:09:15.076Z,100.00
2022-10-13T17:12:20.512Z,100.00
2022-10-13T17:15:25.057Z,100.00
2022-10-13T17:18:31.682Z,100.00
2022-10-13T17:21:37.182Z,100.00
2022-10-13T17:24:48.230Z,100.00
2022-10-13T17:27:52.970Z,100.00
2022-10-13T17:31:01.438Z,100.00
2022-10-13T17:34:09.693Z,100.00
2022-10-13T17:37:14.645Z,100.00
2022-10-13T17:40:19.382Z,100.00
2022-10-13T17:43:26.401Z,100.00
2022-10-13T17:46:40.132Z,100.00
2022-10-13T17:49:47.400Z,100.00
2022-10-13T17:52:52.252Z,100.00
2022-10-13T17:56:02.726Z,100.00
2022-10-13T17:59:07.422Z,100.00
2022-10-13T18:02:12.422Z,100.00
2022-10-13T18:05:18.888Z,100.00
2022-10-13T18:08:23.866Z,100.00
2022-10-13T18:11:29.433Z,100.00
2022-10-13T18:14:34.251Z,100.00
2022-10-13T18:17:39.231Z,100.00
2022-10-13T18:20:45.565Z,100.00
2022-10-13T18:23:51.098Z,100.00
2022-10-13T18:26:56.132Z,100.00
2022-10-13T18:30:01.216Z,100.00
2022-10-13T18:33:06.350Z,100.00
2022-10-13T18:36:17.562Z,100.00
2022-10-13T18:39:25.383Z,100.00
2022-10-13T18:42:30.334Z,100.00
2022-10-13T18:45:38.094Z,100.00
2022-10-13T18:48:43.069Z,100.00
2022-10-13T18:51:52.009Z,100.00
2022-10-13T18:54:57.084Z,100.00
2022-10-13T18:58:01.948Z,100.00
2022-10-13T19:01:09.423Z,100.00
2022-10-13T19:04:17.583Z,100.00
2022-10-13T19:07:24.214Z,100.00
2022-10-13T19:10:30.692Z,100.00
2022-10-13T19:13:35.632Z,100.00
2022-10-13T19:16:42.049Z,100.00
2022-10-13T19:19:47.191Z,100.00
2022-10-13T19:22:54.395Z,100.00
2022-10-13T19:26:00.839Z,100.00
2022-10-13T19:29:08.164Z,100.00
2022-10-13T19:32:13.274Z,100.00
2022-10-13T19:35:18.240Z,100.00
2022-10-13T19:38:25.467Z,100.00
2022-10-13T19:41:32.083Z,100.00
2022-10-13T19:44:37.152Z,100.00
2022-10-13T19:47:42.698Z,100.00
2022-10-13T19:50:48.637Z,100.00
2022-10-13T19:53:57.692Z,100.00
2022-10-13T19:57:02.562Z,100.00
2022-10-13T20:00:07.724Z,100.00
2022-10-13T20:03:13.391Z,100.00
2022-10-13T20:06:19.210Z,100.00
2022-10-13T20:09:26.028Z,100.00
2022-10-13T20:12:32.449Z,100.00
2022-10-13T20:15:41.847Z,100.00
2022-10-13T20:18:48.974Z,100.00
2022-10-13T20:21:55.219Z,100.00
2022-10-13T20:25:01.662Z,100.00
2022-10-13T20:28:07.110Z,100.00
2022-10-13T20:31:13.181Z,100.00
2022-10-13T20:34:18.341Z,100.00
2022-10-13T20:37:46.646Z,100.00
2022-10-13T20:40:55.175Z,100.00
2022-10-13T20:44:04.442Z,100.00
2022-10-13T20:47:09.475Z,100.00
2022-10-13T20:50:14.540Z,100.00
2022-10-13T20:53:19.190Z,100.00
2022-10-13T20:56:47.891Z,100.00
2022-10-13T20:59:52.949Z,100.00
2022-10-13T21:03:01.894Z,100.00
2022-10-13T21:06:13.574Z,100.00
2022-10-13T21:09:19.663Z,100.00
2022-10-13T21:12:26.382Z,100.00
2022-10-13T21:15:31.050Z,100.00
2022-10-13T21:18:36.431Z,100.00
2022-10-13T21:21:41.400Z,100.00
2022-10-13T21:24:46.797Z,100.00
2022-10-13T21:27:53.616Z,100.00
2022-10-13T21:31:06.035Z,100.00
2022-10-13T21:34:12.403Z,100.00
2022-10-13T21:37:18.749Z,100.00
2022-10-13T21:40:23.867Z,100.00
2022-10-13T21:43:30.117Z,100.00
2022-10-13T21:46:36.284Z,100.00
2022-10-13T21:49:41.216Z,100.00
2022-10-13T21:52:46.148Z,100.00
2022-10-13T21:55:52.828Z,100.00
2022-10-13T21:58:59.366Z,100.00
2022-10-13T22:02:04.226Z,100.00
2022-10-13T22:05:10.286Z,100.00
2022-10-13T22:08:15.096Z,100.00
2022-10-13T22:11:20.897Z,100.00
2022-10-13T22:14:27.798Z,100.00
2022-10-13T22:17:34.417Z,100.00
2022-10-13T22:20:39.414Z,100.00
2022-10-13T22:23:44.786Z,100.00
2022-10-13T22:26:50.987Z,100.00
2022-10-13T22:29:59.374Z,100.00
2022-10-13T22:33:04.416Z,100.00
2022-10-13T22:36:10.008Z,100.00
2022-10-13T22:39:15.893Z,100.00
2022-10-13T22:42:21.854Z,100.00
2022-10-13T22:45:28.291Z,100.00
2022-10-13T22:48:38.219Z,100.00
2022-10-13T22:51:47.133Z,100.00
2022-10-13T22:54:52.310Z,100.00
2022-10-13T22:57:57.385Z,100.00
2022-10-13T23:01:09.009Z,100.00
2022-10-13T23:04:14.304Z,100.00
2022-10-13T23:07:19.931Z,100.00
2022-10-13T23:10:25.581Z,100.00
2022-10-13T23:13:30.345Z,100.00
2022-10-13T23:16:39.406Z,100.00
2022-10-13T23:19:44.092Z,100.00
2022-10-13T23:22:48.980Z,100.00
2022-10-13T23:25:53.691Z,100.00
2022-10-13T23:28:59.859Z,100.00
2022-10-13T23:32:09.532Z,100.00
2022-10-13T23:35:15.116Z,100.00
2022-10-13T23:38:20.486Z,100.00
2022-10-13T23:41:25.723Z,100.00
2022-10-13T23:44:31.223Z,100.00
2022-10-13T23:47:37.521Z,100.00
2022-10-13T23:50:42.347Z,100.00
2022-10-13T23:53:48.694Z,100.00
2022-10-13T23:56:55.285Z,100.00
